Main page
METAR-TAF:

METAR-TAF

Airports :

Harare, Zimbabwe

Harare International Airport

latitude: 17-55S, longitude: 031-08E, elevation: 1479 m

Current weather observation

The report was made 58 minutes ago, at 11:00 UTC
Wind 14 kt from the East/Northeast, varying between Northeast and East/Southeast
Temperature 29°C
Humidity 33%
Pressure 1025 hPa
Visibility 10 km or more
no clouds below 1500 m and no cumulonimbus

METAR: FVHA 221100Z 07014KT 040V110 CAVOK 29/11 Q1025 NOSIG

Time: 13:58 (11:58 UTC)

Forecast

The report was made 7 hours and 58 minutes ago, at 04:00 UTC
Forecast valid from 22 at 06 UTC to 23 at 12 UTC
Wind 9 kt from the Southeast
Visibility 10 km or more
no clouds below 1500 m and no cumulonimbus

TAF: FVHA 220400Z 2206/2312 14009KT CAVOK

Weather observations and forecasts of more than 4000 airports (METAR and TAF reports).

The available stations are represented by yellow and red dots on the map.

Hover mouse over dot to see the name of the station.

Then click to see weather observations and forecasts.

To change the map : click on the green buttons with a black cross to zoom in, on the green button with a dash to zoom out, or on the green arrows for adjacent maps.


METAR-TAF: